Estación Meteorológica Peña el Pijo (Robertgarden) [ 02/03/23 03:48:49 CET ]

Fecha Hora Presion(HPa) Temp (°C) Humedad % Rocio (°C) Viento ( m/s) Direccion Lluvia 1Hora(mm) Lluvia 24H(mm) LLuvia Total(mm)
2010-Dec-21 01:01:13 999.800 4.5 85 2.2         16.57
2010-Dec-21 02:04:22 998.900 4.6 88 2.8         16.57
2010-Dec-21 03:01:14 998.400 5.3 91 4.0         16.57
2010-Dec-21 04:01:13 997.600 6.8 92 5.6         16.57
2010-Dec-21 05:01:12 996.700 8.3 92 7.1         16.57
2010-Dec-21 06:01:18 996.100 7.1 91 5.8         16.57
2010-Dec-21 07:01:14 995.700 6.9 92 5.7         16.57
2010-Dec-21 08:01:13 995.200 7.9 90 6.4         16.57
2010-Dec-21 09:01:12 994.900 8.1 91 6.8         16.57
2010-Dec-21 10:01:13 995.200 9.0 89 7.3         16.57
2010-Dec-21 11:01:13 996.800 11.6 76 7.5         16.57
2010-Dec-21 12:01:13 996.900 9.6 81 6.5         16.57
2010-Dec-21 13:01:14 995.600 11.0 77 7.1         16.57
2010-Dec-21 14:01:13 994.300 14.6 65 8.1         16.57
2010-Dec-21 15:01:14 994.100 14.4 62 7.2         16.57
2010-Dec-21 16:01:14 994.300 12.3 70 7.0         16.57
2010-Dec-21 17:01:11 994.600 11.7 70 6.4         16.57
2010-Dec-21 18:01:16 994.900 10.6 75 6.3         16.57
2010-Dec-21 19:01:13 995.300 9.1 81 6.0         16.57
2010-Dec-21 20:01:14 995.000 9.4 79 5.9         16.57
2010-Dec-21 21:01:13 995.100 8.4 79 5.0         16.57
2010-Dec-21 22:01:11 995.000 6.9 82 4.0         16.57
2010-Dec-21 23:01:10 994.600 5.4 87 3.4         16.57

Temperatura Máxima:14°    Temperatura Mínima:
Presión Máxima:999.800 Hpa    Presión Mínima:994.100 Hpa


Volver